Lake Hamilton, Arkansas
Current Conditions -  °F | °C
As of 5:53 AM on Thursday 29 Jan 2015 (Local Time) from KHOT Reporting Station
Clear Clear  
Wind Chill: 53°   Ceiling: Unl
Heat Index: 53°   Visibility: 10mi
Dew Point: 44°   Wind: 3mph
Humidity: 71%   Direction: 280°W
Pressure: 30.05"   Gusts: NA
Location:  34.4476°N, 93.1429°W
Report Text: KHOT 291153Z AUTO 28003KT 10SM CLR 12/07 A3005 RMK AO2 SLP173 T01170067 10167 20106 53002
Loading
Personal Weather Stations






























Interactive Weather Map New forecast layout! Learn more

10-Day Weather Forecast

Advertisements
Track Severe Weather on mobile